sensor_id;sensor_type;location;lat;lon;timestamp;temperature;humidity
34873;DHT22;21084;51.098;14.506;2023-06-22T00:01:04;17.60;92.80
34873;DHT22;21084;51.098;14.506;2023-06-22T00:03:33;17.60;92.80
34873;DHT22;21084;51.098;14.506;2023-06-22T00:06:02;17.50;93.20
34873;DHT22;21084;51.098;14.506;2023-06-22T00:08:32;17.50;93.10
34873;DHT22;21084;51.098;14.506;2023-06-22T00:11:01;17.50;93.10
34873;DHT22;21084;51.098;14.506;2023-06-22T00:13:30;17.40;92.80
34873;DHT22;21084;51.098;14.506;2023-06-22T00:15:59;17.40;93.00
34873;DHT22;21084;51.098;14.506;2023-06-22T00:18:28;17.30;92.90
34873;DHT22;21084;51.098;14.506;2023-06-22T00:20:58;17.30;92.90
34873;DHT22;21084;51.098;14.506;2023-06-22T00:23:27;17.30;93.20
34873;DHT22;21084;51.098;14.506;2023-06-22T00:26:05;17.30;93.30
34873;DHT22;21084;51.098;14.506;2023-06-22T00:28:34;17.30;93.20
34873;DHT22;21084;51.098;14.506;2023-06-22T00:31:03;17.20;93.20
34873;DHT22;21084;51.098;14.506;2023-06-22T00:33:32;17.20;93.30
34873;DHT22;21084;51.098;14.506;2023-06-22T00:36:00;17.20;93.10
34873;DHT22;21084;51.098;14.506;2023-06-22T00:38:30;17.10;93.00
34873;DHT22;21084;51.098;14.506;2023-06-22T00:40:59;17.10;93.10
34873;DHT22;21084;51.098;14.506;2023-06-22T00:43:29;17.10;93.20
34873;DHT22;21084;51.098;14.506;2023-06-22T00:45:58;17.10;93.10
34873;DHT22;21084;51.098;14.506;2023-06-22T00:48:27;17.00;93.00
34873;DHT22;21084;51.098;14.506;2023-06-22T00:50:56;17.00;93.10
34873;DHT22;21084;51.098;14.506;2023-06-22T00:53:25;17.00;93.20
34873;DHT22;21084;51.098;14.506;2023-06-22T00:55:53;16.90;93.20
34873;DHT22;21084;51.098;14.506;2023-06-22T00:58:22;16.90;93.20
34873;DHT22;21084;51.098;14.506;2023-06-22T01:00:53;16.90;93.00
34873;DHT22;21084;51.098;14.506;2023-06-22T01:03:22;16.90;93.00
34873;DHT22;21084;51.098;14.506;2023-06-22T01:05:52;16.90;93.10
34873;DHT22;21084;51.098;14.506;2023-06-22T01:08:28;16.80;93.00
34873;DHT22;21084;51.098;14.506;2023-06-22T01:11:04;16.80;93.10
34873;DHT22;21084;51.098;14.506;2023-06-22T01:13:39;16.70;93.10
34873;DHT22;21084;51.098;14.506;2023-06-22T01:16:16;16.70;93.10
34873;DHT22;21084;51.098;14.506;2023-06-22T01:18:48;16.70;93.20
34873;DHT22;21084;51.098;14.506;2023-06-22T01:21:20;16.60;93.10
34873;DHT22;21084;51.098;14.506;2023-06-22T01:24:01;16.60;93.10
34873;DHT22;21084;51.098;14.506;2023-06-22T01:26:37;16.60;93.30
34873;DHT22;21084;51.098;14.506;2023-06-22T01:29:11;16.60;93.40
34873;DHT22;21084;51.098;14.506;2023-06-22T01:31:42;16.50;93.20
34873;DHT22;21084;51.098;14.506;2023-06-22T01:34:13;16.50;93.30
34873;DHT22;21084;51.098;14.506;2023-06-22T01:36:43;16.50;93.40
34873;DHT22;21084;51.098;14.506;2023-06-22T01:39:12;16.40;93.40
34873;DHT22;21084;51.098;14.506;2023-06-22T01:41:42;16.40;93.50
34873;DHT22;21084;51.098;14.506;2023-06-22T01:44:13;16.40;93.50
34873;DHT22;21084;51.098;14.506;2023-06-22T01:46:42;16.40;93.60
34873;DHT22;21084;51.098;14.506;2023-06-22T01:49:11;16.40;93.40
34873;DHT22;21084;51.098;14.506;2023-06-22T01:51:40;16.40;93.40
34873;DHT22;21084;51.098;14.506;2023-06-22T01:54:08;16.30;93.30
34873;DHT22;21084;51.098;14.506;2023-06-22T01:56:39;16.30;93.20
34873;DHT22;21084;51.098;14.506;2023-06-22T01:59:11;16.30;93.30
34873;DHT22;21084;51.098;14.506;2023-06-22T02:01:51;16.30;93.40
34873;DHT22;21084;51.098;14.506;2023-06-22T02:04:27;16.20;93.50
34873;DHT22;21084;51.098;14.506;2023-06-22T02:06:58;16.20;93.50
34873;DHT22;21084;51.098;14.506;2023-06-22T02:09:30;16.10;93.50
34873;DHT22;21084;51.098;14.506;2023-06-22T02:12:00;16.10;93.30
34873;DHT22;21084;51.098;14.506;2023-06-22T02:14:30;16.00;93.40
34873;DHT22;21084;51.098;14.506;2023-06-22T02:17:01;16.00;93.60
34873;DHT22;21084;51.098;14.506;2023-06-22T02:19:32;16.00;93.50
34873;DHT22;21084;51.098;14.506;2023-06-22T02:22:08;16.00;93.50
34873;DHT22;21084;51.098;14.506;2023-06-22T02:24:37;16.00;93.50
34873;DHT22;21084;51.098;14.506;2023-06-22T02:27:06;15.90;93.40
34873;DHT22;21084;51.098;14.506;2023-06-22T02:29:36;15.90;93.50
34873;DHT22;21084;51.098;14.506;2023-06-22T02:35:52;15.90;93.50
34873;DHT22;21084;51.098;14.506;2023-06-22T02:38:21;15.90;93.60
34873;DHT22;21084;51.098;14.506;2023-06-22T02:40:51;15.80;93.70
34873;DHT22;21084;51.098;14.506;2023-06-22T02:43:22;15.80;93.60
34873;DHT22;21084;51.098;14.506;2023-06-22T02:45:51;15.80;93.60
34873;DHT22;21084;51.098;14.506;2023-06-22T02:48:20;15.80;93.60
34873;DHT22;21084;51.098;14.506;2023-06-22T02:50:49;15.80;93.80
34873;DHT22;21084;51.098;14.506;2023-06-22T02:53:20;15.70;93.70
34873;DHT22;21084;51.098;14.506;2023-06-22T02:55:49;15.70;94.10
34873;DHT22;21084;51.098;14.506;2023-06-22T02:58:17;15.70;93.90
34873;DHT22;21084;51.098;14.506;2023-06-22T03:00:46;15.70;93.90
34873;DHT22;21084;51.098;14.506;2023-06-22T03:03:15;15.70;93.90
34873;DHT22;21084;51.098;14.506;2023-06-22T03:05:44;15.80;93.90
34873;DHT22;21084;51.098;14.506;2023-06-22T03:08:14;15.70;93.80
34873;DHT22;21084;51.098;14.506;2023-06-22T03:10:44;15.70;93.80
34873;DHT22;21084;51.098;14.506;2023-06-22T03:13:13;15.70;93.80
34873;DHT22;21084;51.098;14.506;2023-06-22T03:15:42;15.80;93.90
34873;DHT22;21084;51.098;14.506;2023-06-22T03:18:11;15.80;93.80
34873;DHT22;21084;51.098;14.506;2023-06-22T03:20:40;15.80;93.90
34873;DHT22;21084;51.098;14.506;2023-06-22T03:23:10;15.80;93.90
34873;DHT22;21084;51.098;14.506;2023-06-22T03:25:39;15.80;94.00
34873;DHT22;21084;51.098;14.506;2023-06-22T03:28:09;15.90;94.00
34873;DHT22;21084;51.098;14.506;2023-06-22T03:30:39;15.90;94.00
34873;DHT22;21084;51.098;14.506;2023-06-22T03:33:08;15.90;94.00
34873;DHT22;21084;51.098;14.506;2023-06-22T03:35:37;16.00;94.00
34873;DHT22;21084;51.098;14.506;2023-06-22T03:38:06;16.00;94.00
34873;DHT22;21084;51.098;14.506;2023-06-22T03:40:34;16.10;94.10
34873;DHT22;21084;51.098;14.506;2023-06-22T03:43:03;16.10;94.00
34873;DHT22;21084;51.098;14.506;2023-06-22T03:45:34;16.20;94.10
34873;DHT22;21084;51.098;14.506;2023-06-22T03:48:03;16.20;94.20
34873;DHT22;21084;51.098;14.506;2023-06-22T03:50:32;16.30;94.20
34873;DHT22;21084;51.098;14.506;2023-06-22T03:53:01;16.40;94.10
34873;DHT22;21084;51.098;14.506;2023-06-22T03:55:29;16.50;94.10
34873;DHT22;21084;51.098;14.506;2023-06-22T03:57:58;16.60;94.00
34873;DHT22;21084;51.098;14.506;2023-06-22T04:00:34;16.70;93.90
34873;DHT22;21084;51.098;14.506;2023-06-22T04:03:03;16.80;93.90
34873;DHT22;21084;51.098;14.506;2023-06-22T04:05:32;16.90;93.80
34873;DHT22;21084;51.098;14.506;2023-06-22T04:08:00;17.00;93.60
34873;DHT22;21084;51.098;14.506;2023-06-22T04:10:29;17.10;93.70
34873;DHT22;21084;51.098;14.506;2023-06-22T04:12:59;17.20;93.70
34873;DHT22;21084;51.098;14.506;2023-06-22T04:15:28;17.40;93.80
34873;DHT22;21084;51.098;14.506;2023-06-22T04:17:58;17.60;93.90
34873;DHT22;21084;51.098;14.506;2023-06-22T04:20:27;17.80;93.70
34873;DHT22;21084;51.098;14.506;2023-06-22T04:22:56;18.00;93.80
34873;DHT22;21084;51.098;14.506;2023-06-22T04:25:25;18.10;93.20
34873;DHT22;21084;51.098;14.506;2023-06-22T04:27:53;18.30;93.10
34873;DHT22;21084;51.098;14.506;2023-06-22T04:30:22;18.50;92.90
34873;DHT22;21084;51.098;14.506;2023-06-22T04:32:51;18.50;92.00
34873;DHT22;21084;51.098;14.506;2023-06-22T04:35:27;18.50;91.70
34873;DHT22;21084;51.098;14.506;2023-06-22T04:37:58;18.20;91.80
34873;DHT22;21084;51.098;14.506;2023-06-22T04:40:27;18.50;92.50
34873;DHT22;21084;51.098;14.506;2023-06-22T04:42:56;18.70;92.40
34873;DHT22;21084;51.098;14.506;2023-06-22T04:45:25;19.00;92.30
34873;DHT22;21084;51.098;14.506;2023-06-22T04:47:54;19.20;91.50
34873;DHT22;21084;51.098;14.506;2023-06-22T04:50:23;19.30;90.20
34873;DHT22;21084;51.098;14.506;2023-06-22T04:52:53;19.40;90.10
34873;DHT22;21084;51.098;14.506;2023-06-22T04:55:23;19.60;90.30
34873;DHT22;21084;51.098;14.506;2023-06-22T04:57:53;19.90;90.30
34873;DHT22;21084;51.098;14.506;2023-06-22T05:00:21;20.10;90.10
34873;DHT22;21084;51.098;14.506;2023-06-22T05:02:53;20.40;90.00
34873;DHT22;21084;51.098;14.506;2023-06-22T05:05:52;20.70;89.40
34873;DHT22;21084;51.098;14.506;2023-06-22T05:08:39;20.80;86.70
34873;DHT22;21084;51.098;14.506;2023-06-22T05:11:23;21.10;87.40
34873;DHT22;21084;51.098;14.506;2023-06-22T05:14:05;21.50;86.90
34873;DHT22;21084;51.098;14.506;2023-06-22T05:16:34;21.90;86.30
34873;DHT22;21084;51.098;14.506;2023-06-22T05:19:03;22.20;84.80
34873;DHT22;21084;51.098;14.506;2023-06-22T05:21:32;22.60;83.60
34873;DHT22;21084;51.098;14.506;2023-06-22T05:24:03;22.90;84.30
34873;DHT22;21084;51.098;14.506;2023-06-22T05:26:33;23.20;82.30
34873;DHT22;21084;51.098;14.506;2023-06-22T05:29:03;23.60;81.70
34873;DHT22;21084;51.098;14.506;2023-06-22T05:31:32;23.90;81.00
34873;DHT22;21084;51.098;14.506;2023-06-22T05:34:00;24.30;80.00
34873;DHT22;21084;51.098;14.506;2023-06-22T05:36:29;24.60;79.10
34873;DHT22;21084;51.098;14.506;2023-06-22T05:38:57;24.50;78.30
34873;DHT22;21084;51.098;14.506;2023-06-22T05:41:28;24.00;79.30
34873;DHT22;21084;51.098;14.506;2023-06-22T05:43:57;24.00;80.50
34873;DHT22;21084;51.098;14.506;2023-06-22T05:46:26;24.20;80.80
34873;DHT22;21084;51.098;14.506;2023-06-22T05:48:54;24.30;80.40
34873;DHT22;21084;51.098;14.506;2023-06-22T05:51:23;24.50;80.70
34873;DHT22;21084;51.098;14.506;2023-06-22T05:53:52;24.50;79.00
34873;DHT22;21084;51.098;14.506;2023-06-22T05:56:20;24.80;78.80
34873;DHT22;21084;51.098;14.506;2023-06-22T05:58:50;24.80;78.70
34873;DHT22;21084;51.098;14.506;2023-06-22T06:01:19;24.30;79.90
34873;DHT22;21084;51.098;14.506;2023-06-22T06:03:48;24.50;79.30
34873;DHT22;21084;51.098;14.506;2023-06-22T06:06:19;24.70;79.30
34873;DHT22;21084;51.098;14.506;2023-06-22T06:08:50;25.10;78.30
34873;DHT22;21084;51.098;14.506;2023-06-22T06:11:18;25.60;77.90
34873;DHT22;21084;51.098;14.506;2023-06-22T06:13:47;26.00;76.30
34873;DHT22;21084;51.098;14.506;2023-06-22T06:16:17;26.40;76.90
34873;DHT22;21084;51.098;14.506;2023-06-22T06:18:46;27.00;75.90
34873;DHT22;21084;51.098;14.506;2023-06-22T06:21:15;27.50;74.70
34873;DHT22;21084;51.098;14.506;2023-06-22T06:23:44;27.70;72.90
34873;DHT22;21084;51.098;14.506;2023-06-22T06:26:14;28.00;72.60
34873;DHT22;21084;51.098;14.506;2023-06-22T06:28:44;28.20;71.20
34873;DHT22;21084;51.098;14.506;2023-06-22T06:31:12;28.30;71.00
34873;DHT22;21084;51.098;14.506;2023-06-22T06:33:46;28.30;70.70
34873;DHT22;21084;51.098;14.506;2023-06-22T06:36:15;28.50;70.60
34873;DHT22;21084;51.098;14.506;2023-06-22T06:38:44;28.10;70.70
34873;DHT22;21084;51.098;14.506;2023-06-22T06:41:15;28.70;70.10
34873;DHT22;21084;51.098;14.506;2023-06-22T06:43:44;28.60;69.50
34873;DHT22;21084;51.098;14.506;2023-06-22T06:46:12;28.70;69.20
34873;DHT22;21084;51.098;14.506;2023-06-22T06:48:41;28.60;69.90
34873;DHT22;21084;51.098;14.506;2023-06-22T06:51:11;28.60;70.10
34873;DHT22;21084;51.098;14.506;2023-06-22T06:53:43;28.50;68.90
34873;DHT22;21084;51.098;14.506;2023-06-22T06:56:13;28.50;69.00
34873;DHT22;21084;51.098;14.506;2023-06-22T06:58:42;28.80;68.70
34873;DHT22;21084;51.098;14.506;2023-06-22T07:01:13;28.60;68.50
34873;DHT22;21084;51.098;14.506;2023-06-22T07:03:42;29.10;68.40
34873;DHT22;21084;51.098;14.506;2023-06-22T07:06:12;29.60;66.80
34873;DHT22;21084;51.098;14.506;2023-06-22T07:08:41;29.50;66.50
34873;DHT22;21084;51.098;14.506;2023-06-22T07:11:10;29.10;66.80
34873;DHT22;21084;51.098;14.506;2023-06-22T07:13:39;29.00;67.60
34873;DHT22;21084;51.098;14.506;2023-06-22T07:16:08;29.50;67.50
34873;DHT22;21084;51.098;14.506;2023-06-22T07:18:39;29.70;67.40
34873;DHT22;21084;51.098;14.506;2023-06-22T07:21:07;29.10;67.20
34873;DHT22;21084;51.098;14.506;2023-06-22T07:23:38;29.10;67.30
34873;DHT22;21084;51.098;14.506;2023-06-22T07:26:08;29.40;67.80
34873;DHT22;21084;51.098;14.506;2023-06-22T07:28:39;29.20;67.40
34873;DHT22;21084;51.098;14.506;2023-06-22T07:31:09;28.60;68.70
34873;DHT22;21084;51.098;14.506;2023-06-22T07:33:38;28.50;69.10
34873;DHT22;21084;51.098;14.506;2023-06-22T07:36:11;28.70;69.50
34873;DHT22;21084;51.098;14.506;2023-06-22T07:38:41;29.40;68.70
34873;DHT22;21084;51.098;14.506;2023-06-22T07:41:10;29.70;67.10
34873;DHT22;21084;51.098;14.506;2023-06-22T07:43:39;29.40;66.70
34873;DHT22;21084;51.098;14.506;2023-06-22T07:46:07;30.10;65.90
34873;DHT22;21084;51.098;14.506;2023-06-22T07:48:37;30.70;65.20
34873;DHT22;21084;51.098;14.506;2023-06-22T07:51:06;31.30;63.90
34873;DHT22;21084;51.098;14.506;2023-06-22T07:53:35;31.60;63.10
34873;DHT22;21084;51.098;14.506;2023-06-22T07:56:05;31.80;61.70
34873;DHT22;21084;51.098;14.506;2023-06-22T07:58:34;32.20;60.40
34873;DHT22;21084;51.098;14.506;2023-06-22T08:01:03;32.80;60.40
34873;DHT22;21084;51.098;14.506;2023-06-22T08:03:33;33.00;58.90
34873;DHT22;21084;51.098;14.506;2023-06-22T08:06:02;33.00;57.60
34873;DHT22;21084;51.098;14.506;2023-06-22T08:08:31;33.20;58.00
34873;DHT22;21084;51.098;14.506;2023-06-22T08:11:00;33.10;57.70
34873;DHT22;21084;51.098;14.506;2023-06-22T08:13:30;32.70;58.40
34873;DHT22;21084;51.098;14.506;2023-06-22T08:15:59;33.00;56.40
34873;DHT22;21084;51.098;14.506;2023-06-22T08:18:33;33.60;55.50
34873;DHT22;21084;51.098;14.506;2023-06-22T08:21:02;33.30;55.50
34873;DHT22;21084;51.098;14.506;2023-06-22T08:23:32;33.00;55.80
34873;DHT22;21084;51.098;14.506;2023-06-22T08:26:01;32.80;56.50
34873;DHT22;21084;51.098;14.506;2023-06-22T08:28:31;32.60;56.70
34873;DHT22;21084;51.098;14.506;2023-06-22T08:31:01;32.90;56.90
34873;DHT22;21084;51.098;14.506;2023-06-22T08:33:30;32.90;56.30
34873;DHT22;21084;51.098;14.506;2023-06-22T08:35:59;32.70;56.00
34873;DHT22;21084;51.098;14.506;2023-06-22T08:38:28;32.50;55.40
34873;DHT22;21084;51.098;14.506;2023-06-22T08:40:57;32.50;55.40
34873;DHT22;21084;51.098;14.506;2023-06-22T08:43:27;32.80;55.80
34873;DHT22;21084;51.098;14.506;2023-06-22T08:45:57;32.20;55.80
34873;DHT22;21084;51.098;14.506;2023-06-22T08:48:26;32.70;55.60
34873;DHT22;21084;51.098;14.506;2023-06-22T08:50:55;33.40;55.00
34873;DHT22;21084;51.098;14.506;2023-06-22T08:53:24;34.00;53.60
34873;DHT22;21084;51.098;14.506;2023-06-22T08:55:53;34.10;52.70
34873;DHT22;21084;51.098;14.506;2023-06-22T08:58:21;34.10;51.60
34873;DHT22;21084;51.098;14.506;2023-06-22T09:00:51;33.30;52.10
34873;DHT22;21084;51.098;14.506;2023-06-22T09:03:21;34.00;52.50
34873;DHT22;21084;51.098;14.506;2023-06-22T09:05:54;34.80;51.00
34873;DHT22;21084;51.098;14.506;2023-06-22T09:08:23;34.50;51.40
34873;DHT22;21084;51.098;14.506;2023-06-22T09:10:52;34.10;50.20
34873;DHT22;21084;51.098;14.506;2023-06-22T09:13:20;33.20;51.20
34873;DHT22;21084;51.098;14.506;2023-06-22T09:15:50;34.00;51.60
34873;DHT22;21084;51.098;14.506;2023-06-22T09:18:21;34.40;50.40
34873;DHT22;21084;51.098;14.506;2023-06-22T09:20:50;34.60;49.70
34873;DHT22;21084;51.098;14.506;2023-06-22T09:23:19;34.70;48.50
34873;DHT22;21084;51.098;14.506;2023-06-22T09:25:48;35.50;47.70
34873;DHT22;21084;51.098;14.506;2023-06-22T09:28:17;36.50;46.90
34873;DHT22;21084;51.098;14.506;2023-06-22T09:30:46;35.80;46.00
34873;DHT22;21084;51.098;14.506;2023-06-22T09:33:14;35.20;46.70
34873;DHT22;21084;51.098;14.506;2023-06-22T09:35:44;35.00;47.20
34873;DHT22;21084;51.098;14.506;2023-06-22T09:38:13;34.50;46.80
34873;DHT22;21084;51.098;14.506;2023-06-22T09:40:42;34.60;47.30
34873;DHT22;21084;51.098;14.506;2023-06-22T09:43:11;35.10;46.90
34873;DHT22;21084;51.098;14.506;2023-06-22T09:45:40;35.30;45.90
34873;DHT22;21084;51.098;14.506;2023-06-22T09:48:09;35.80;46.60
34873;DHT22;21084;51.098;14.506;2023-06-22T09:50:38;36.80;44.80
34873;DHT22;21084;51.098;14.506;2023-06-22T09:53:08;37.70;43.80
34873;DHT22;21084;51.098;14.506;2023-06-22T09:55:37;37.80;43.00
34873;DHT22;21084;51.098;14.506;2023-06-22T09:58:06;36.90;42.90
34873;DHT22;21084;51.098;14.506;2023-06-22T10:00:36;37.10;42.50
34873;DHT22;21084;51.098;14.506;2023-06-22T10:03:05;37.20;42.20
34873;DHT22;21084;51.098;14.506;2023-06-22T10:05:34;37.70;41.50
34873;DHT22;21084;51.098;14.506;2023-06-22T10:08:03;37.30;42.30
34873;DHT22;21084;51.098;14.506;2023-06-22T10:10:33;36.50;42.10
34873;DHT22;21084;51.098;14.506;2023-06-22T10:13:07;37.10;42.20
34873;DHT22;21084;51.098;14.506;2023-06-22T10:15:37;37.70;41.20
34873;DHT22;21084;51.098;14.506;2023-06-22T10:18:05;38.00;41.40
34873;DHT22;21084;51.098;14.506;2023-06-22T10:20:35;37.70;40.20
34873;DHT22;21084;51.098;14.506;2023-06-22T10:23:03;38.00;40.50
34873;DHT22;21084;51.098;14.506;2023-06-22T10:25:34;37.10;41.40
34873;DHT22;21084;51.098;14.506;2023-06-22T10:28:03;37.40;42.30
34873;DHT22;21084;51.098;14.506;2023-06-22T10:30:32;37.80;40.80
34873;DHT22;21084;51.098;14.506;2023-06-22T10:33:00;37.90;40.20
34873;DHT22;21084;51.098;14.506;2023-06-22T10:35:29;37.90;40.30
34873;DHT22;21084;51.098;14.506;2023-06-22T10:37:58;39.00;39.50
34873;DHT22;21084;51.098;14.506;2023-06-22T10:40:27;39.30;39.00
34873;DHT22;21084;51.098;14.506;2023-06-22T10:42:58;39.20;38.10
34873;DHT22;21084;51.098;14.506;2023-06-22T10:45:27;38.20;39.20
34873;DHT22;21084;51.098;14.506;2023-06-22T10:47:57;38.10;39.90
34873;DHT22;21084;51.098;14.506;2023-06-22T10:50:25;37.70;39.30
34873;DHT22;21084;51.098;14.506;2023-06-22T10:52:54;37.40;41.00
34873;DHT22;21084;51.098;14.506;2023-06-22T10:55:26;38.40;40.40
34873;DHT22;21084;51.098;14.506;2023-06-22T10:58:14;39.00;39.70
34873;DHT22;21084;51.098;14.506;2023-06-22T11:00:43;39.10;37.90
34873;DHT22;21084;51.098;14.506;2023-06-22T11:03:12;39.80;38.30
34873;DHT22;21084;51.098;14.506;2023-06-22T11:05:41;39.40;36.60
34873;DHT22;21084;51.098;14.506;2023-06-22T11:08:10;38.80;38.20
34873;DHT22;21084;51.098;14.506;2023-06-22T11:10:39;38.40;39.20
34873;DHT22;21084;51.098;14.506;2023-06-22T11:13:08;38.40;40.00
34873;DHT22;21084;51.098;14.506;2023-06-22T11:15:40;39.20;38.70
34873;DHT22;21084;51.098;14.506;2023-06-22T11:18:09;39.20;38.10
34873;DHT22;21084;51.098;14.506;2023-06-22T11:20:37;39.50;38.30
34873;DHT22;21084;51.098;14.506;2023-06-22T11:23:08;39.50;37.00
34873;DHT22;21084;51.098;14.506;2023-06-22T11:25:37;40.40;37.50
34873;DHT22;21084;51.098;14.506;2023-06-22T11:28:05;41.00;35.30
34873;DHT22;21084;51.098;14.506;2023-06-22T11:30:34;41.10;34.90
34873;DHT22;21084;51.098;14.506;2023-06-22T11:33:05;41.50;35.20
34873;DHT22;21084;51.098;14.506;2023-06-22T11:35:34;41.70;33.90
34873;DHT22;21084;51.098;14.506;2023-06-22T11:38:03;40.50;35.00
34873;DHT22;21084;51.098;14.506;2023-06-22T11:40:32;41.00;35.50
34873;DHT22;21084;51.098;14.506;2023-06-22T11:43:01;41.10;34.70
34873;DHT22;21084;51.098;14.506;2023-06-22T11:45:29;40.70;35.40
34873;DHT22;21084;51.098;14.506;2023-06-22T11:47:59;40.20;35.60
34873;DHT22;21084;51.098;14.506;2023-06-22T11:50:30;39.90;36.20
34873;DHT22;21084;51.098;14.506;2023-06-22T11:53:03;39.90;35.00
34873;DHT22;21084;51.098;14.506;2023-06-22T11:55:32;40.30;35.60
34873;DHT22;21084;51.098;14.506;2023-06-22T11:58:00;40.40;35.80
34873;DHT22;21084;51.098;14.506;2023-06-22T12:00:31;40.90;35.30
34873;DHT22;21084;51.098;14.506;2023-06-22T12:03:16;40.60;35.10
34873;DHT22;21084;51.098;14.506;2023-06-22T12:05:56;40.40;35.50
34873;DHT22;21084;51.098;14.506;2023-06-22T12:08:28;39.80;35.80
34873;DHT22;21084;51.098;14.506;2023-06-22T12:10:58;40.20;35.00
34873;DHT22;21084;51.098;14.506;2023-06-22T12:13:27;40.40;35.20
34873;DHT22;21084;51.098;14.506;2023-06-22T12:15:56;40.90;34.00
34873;DHT22;21084;51.098;14.506;2023-06-22T12:18:24;40.30;34.20
34873;DHT22;21084;51.098;14.506;2023-06-22T12:20:55;40.50;35.10
34873;DHT22;21084;51.098;14.506;2023-06-22T12:23:23;41.10;35.10
34873;DHT22;21084;51.098;14.506;2023-06-22T12:25:52;40.90;34.20
34873;DHT22;21084;51.098;14.506;2023-06-22T12:28:21;41.30;34.00
34873;DHT22;21084;51.098;14.506;2023-06-22T12:30:51;41.70;34.40
34873;DHT22;21084;51.098;14.506;2023-06-22T12:33:20;41.70;33.60
34873;DHT22;21084;51.098;14.506;2023-06-22T12:35:49;41.40;34.00
34873;DHT22;21084;51.098;14.506;2023-06-22T12:38:19;42.00;33.30
34873;DHT22;21084;51.098;14.506;2023-06-22T12:40:48;41.10;32.70
34873;DHT22;21084;51.098;14.506;2023-06-22T12:43:17;40.50;33.60
34873;DHT22;21084;51.098;14.506;2023-06-22T12:45:47;40.10;34.90
34873;DHT22;21084;51.098;14.506;2023-06-22T12:48:16;40.30;33.90
34873;DHT22;21084;51.098;14.506;2023-06-22T12:50:45;39.60;35.60
34873;DHT22;21084;51.098;14.506;2023-06-22T12:53:15;39.80;36.50
34873;DHT22;21084;51.098;14.506;2023-06-22T12:55:45;39.70;34.80
34873;DHT22;21084;51.098;14.506;2023-06-22T12:58:14;38.40;36.20
34873;DHT22;21084;51.098;14.506;2023-06-22T13:00:44;37.50;38.00
34873;DHT22;21084;51.098;14.506;2023-06-22T13:03:13;38.30;37.00
34873;DHT22;21084;51.098;14.506;2023-06-22T13:05:41;37.60;37.70
34873;DHT22;21084;51.098;14.506;2023-06-22T13:08:10;38.80;37.00
34873;DHT22;21084;51.098;14.506;2023-06-22T13:10:39;39.80;36.70
34873;DHT22;21084;51.098;14.506;2023-06-22T13:13:09;40.40;35.50
34873;DHT22;21084;51.098;14.506;2023-06-22T13:15:38;40.90;35.00
34873;DHT22;21084;51.098;14.506;2023-06-22T13:18:07;40.40;35.00
34873;DHT22;21084;51.098;14.506;2023-06-22T13:20:36;40.30;35.10
34873;DHT22;21084;51.098;14.506;2023-06-22T13:23:05;40.40;35.40
34873;DHT22;21084;51.098;14.506;2023-06-22T13:25:33;40.20;34.50
34873;DHT22;21084;51.098;14.506;2023-06-22T13:28:02;40.20;34.10
34873;DHT22;21084;51.098;14.506;2023-06-22T13:30:35;40.10;35.40
34873;DHT22;21084;51.098;14.506;2023-06-22T13:33:04;41.00;34.80
34873;DHT22;21084;51.098;14.506;2023-06-22T13:35:33;40.70;34.20
34873;DHT22;21084;51.098;14.506;2023-06-22T13:38:02;40.90;34.90
34873;DHT22;21084;51.098;14.506;2023-06-22T13:40:31;41.10;34.10
34873;DHT22;21084;51.098;14.506;2023-06-22T13:43:00;40.90;33.90
34873;DHT22;21084;51.098;14.506;2023-06-22T13:45:28;40.20;34.30
34873;DHT22;21084;51.098;14.506;2023-06-22T13:47:59;39.30;35.50
34873;DHT22;21084;51.098;14.506;2023-06-22T13:50:28;39.00;35.40
34873;DHT22;21084;51.098;14.506;2023-06-22T13:52:57;38.80;36.70
34873;DHT22;21084;51.098;14.506;2023-06-22T13:55:26;38.80;37.10
34873;DHT22;21084;51.098;14.506;2023-06-22T13:57:55;39.40;37.90
34873;DHT22;21084;51.098;14.506;2023-06-22T14:00:24;38.90;35.70
34873;DHT22;21084;51.098;14.506;2023-06-22T14:02:53;38.60;38.10
34873;DHT22;21084;51.098;14.506;2023-06-22T14:05:23;38.90;38.10
34873;DHT22;21084;51.098;14.506;2023-06-22T14:07:52;38.90;36.90
34873;DHT22;21084;51.098;14.506;2023-06-22T14:10:21;39.70;37.40
34873;DHT22;21084;51.098;14.506;2023-06-22T14:12:50;39.50;36.90
34873;DHT22;21084;51.098;14.506;2023-06-22T14:15:22;39.50;36.70
34873;DHT22;21084;51.098;14.506;2023-06-22T14:17:51;39.50;36.50
34873;DHT22;21084;51.098;14.506;2023-06-22T14:20:20;39.00;36.80
34873;DHT22;21084;51.098;14.506;2023-06-22T14:22:51;38.70;36.50
34873;DHT22;21084;51.098;14.506;2023-06-22T14:25:20;38.10;36.90
34873;DHT22;21084;51.098;14.506;2023-06-22T14:27:49;38.60;38.10
34873;DHT22;21084;51.098;14.506;2023-06-22T14:30:17;38.80;36.70
34873;DHT22;21084;51.098;14.506;2023-06-22T14:32:46;38.50;37.70
34873;DHT22;21084;51.098;14.506;2023-06-22T14:35:15;38.70;37.50
34873;DHT22;21084;51.098;14.506;2023-06-22T14:37:44;38.60;37.50
34873;DHT22;21084;51.098;14.506;2023-06-22T14:40:14;38.00;37.90
34873;DHT22;21084;51.098;14.506;2023-06-22T14:42:44;37.40;38.60
34873;DHT22;21084;51.098;14.506;2023-06-22T14:45:13;36.40;40.00
34873;DHT22;21084;51.098;14.506;2023-06-22T14:47:42;36.80;40.90
34873;DHT22;21084;51.098;14.506;2023-06-22T14:50:11;36.70;40.00
34873;DHT22;21084;51.098;14.506;2023-06-22T14:52:41;37.00;40.20
34873;DHT22;21084;51.098;14.506;2023-06-22T14:55:10;37.80;40.00
34873;DHT22;21084;51.098;14.506;2023-06-22T14:57:40;37.60;39.20
34873;DHT22;21084;51.098;14.506;2023-06-22T15:00:09;37.20;39.80
34873;DHT22;21084;51.098;14.506;2023-06-22T15:02:39;37.40;39.40
34873;DHT22;21084;51.098;14.506;2023-06-22T15:05:09;37.40;40.40
34873;DHT22;21084;51.098;14.506;2023-06-22T15:07:38;37.30;39.70
34873;DHT22;21084;51.098;14.506;2023-06-22T15:10:08;37.50;39.30
34873;DHT22;21084;51.098;14.506;2023-06-22T15:12:36;37.10;39.40
34873;DHT22;21084;51.098;14.506;2023-06-22T15:15:09;37.10;40.60
34873;DHT22;21084;51.098;14.506;2023-06-22T15:17:38;36.70;40.90
34873;DHT22;21084;51.098;14.506;2023-06-22T15:20:07;36.80;41.20
34873;DHT22;21084;51.098;14.506;2023-06-22T15:22:38;37.40;40.90
34873;DHT22;21084;51.098;14.506;2023-06-22T15:25:07;37.40;39.60
34873;DHT22;21084;51.098;14.506;2023-06-22T15:27:36;36.90;40.30
34873;DHT22;21084;51.098;14.506;2023-06-22T15:30:08;37.20;40.90
34873;DHT22;21084;51.098;14.506;2023-06-22T15:32:37;37.40;40.10
34873;DHT22;21084;51.098;14.506;2023-06-22T15:35:06;37.20;40.30